Latest Weather Observations for Groote Eylandt Airport

IDD60801

Issued at 9:01 pm CST Saturday 28 May 2016 (issued every 30 minutes, with the page automatically refreshed every 10 minutes)

About weather observations | Map of weather stations | Latest weather observations for NT | Other Formats
Station Details ID: 014518 Name: GROOTE EYLANDT AIRPORT Lat: -13.97 Lon: 136.46 Height: 13.7 m
Data from the previous 72 hours. | See also: Recent months at Groote Eylandt Airport
Date/Time
CST
Temp
°C
App
Temp
°C
Dew
Point
Rel
Hum
%
Delta-T
°C
Wind Press
QNH
hPa
Press
MSL
hPa
Rain
since 9 am
mm
Dir
 
Spd
km/h
Gust
km/h
Spd
kts
Gust
kts
28/09:00pm 23.9 29.0 22.7 93 0.8 CALM 0 0 0 0 1013.5 1013.4 0.6
28/08:30pm 24.2 29.5 23.0 93 0.8 CALM 0 0 0 0 1013.3 1013.2 0.6
28/08:00pm 24.5 29.7 22.9 91 1.1 CALM 0 0 0 0 1012.9 1012.8 0.6
28/07:30pm 24.8 29.4 23.2 91 1.1 SSE 4 7 2 4 1012.5 1012.4 0.6
28/07:00pm 25.1 29.6 23.0 88 1.4 SSE 4 7 2 4 1012.3 1012.2 0.6
28/06:30pm 25.5 29.7 23.2 87 1.6 SSE 6 7 3 4 1012.0 1011.9 0.6
28/06:00pm 26.5 31.7 23.6 84 2.0 ESE 2 7 1 4 1011.8 1011.7 0.6
28/05:30pm 26.8 32.2 23.9 84 2.0 SSE 2 7 1 4 1011.6 1011.5 0.6
28/05:00pm 26.3 30.7 23.4 84 2.0 SE 6 9 3 5 1011.5 1011.4 0.6
28/04:30pm 27.2 30.8 23.7 81 2.4 SE 11 20 6 11 1011.5 1011.4 0.6
28/04:00pm 28.2 32.7 23.6 76 3.2 SSE 6 13 3 7 1011.5 1011.4 0.6
28/03:30pm 29.2 33.5 23.6 72 3.9 W 7 11 4 6 1011.5 1011.4 0.6
28/03:00pm 28.6 32.7 23.9 75 3.2 W 9 15 5 8 1011.6 1011.5 0.6
28/02:30pm 28.0 32.6 24.8 83 2.2 W 9 11 5 6 1011.7 1011.6 0.6
28/02:00pm 28.0 31.4 24.0 79 2.8 W 13 19 7 10 1011.9 1011.8 0.0
28/01:30pm 29.4 32.9 23.6 71 4.0 W 11 20 6 11 1012.1 1012.0 0.0
28/01:00pm 29.2 33.3 23.9 73 3.7 W 9 15 5 8 1012.4 1012.3 0.0
28/12:30pm 29.4 32.7 23.8 72 3.9 W 13 24 7 13 1012.8 1012.7 0.0
28/12:00pm 29.7 34.0 24.3 73 3.8 WSW 9 15 5 8 1013.3 1013.2 0.0
28/11:30am 29.4 33.3 24.3 74 3.5 W 11 17 6 9 1013.9 1013.8 0.0
28/11:00am 29.9 34.3 25.0 75 3.4 W 11 17 6 9 1014.2 1014.1 0.0
28/10:30am 31.0 35.4 23.4 64 5.2 ESE 6 9 3 5 1014.6 1014.5 0.0
28/10:00am 29.9 33.1 22.3 63 5.2 NE 9 13 5 7 1014.9 1014.8 0.0
28/09:30am 29.6 34.0 23.8 71 4.0 ENE 7 11 4 6 1015.0 1014.9 0.0
28/09:00am 28.4 33.3 24.4 79 2.8 E 6 9 3 5 1015.1 1015.0 0.2
28/08:30am 26.6 31.3 24.3 87 1.6 E 7 9 4 5 1014.9 1014.8 0.2
28/08:00am 24.6 28.7 23.2 92 0.9 E 7 7 4 4 1014.6 1014.5 0.2
28/07:30am 22.9 26.6 22.2 96 0.5 ESE 6 7 3 4 1014.2 1014.1 0.2
28/07:00am 21.8 26.1 21.1 96 0.5 CALM 0 4 0 2 1013.8 1013.7 0.0
28/06:30am 21.6 25.8 20.9 96 0.5 CALM 0 0 0 0 1013.3 1013.2 0.0
28/06:00am 21.5 25.6 20.8 96 0.5 CALM 0 0 0 0 1013.0 1012.9 0.0
28/05:30am 21.5 25.6 20.8 96 0.5 CALM 0 0 0 0 1012.6 1012.5 0.0
28/05:00am 21.7 25.9 21.0 96 0.5 CALM 0 0 0 0 1012.5 1012.4 0.0
28/04:30am 21.7 24.8 21.0 96 0.5 ESE 6 6 3 3 1012.3 1012.2 0.0
28/04:00am 21.8 25.7 21.1 96 0.5 E 2 7 1 4 1011.9 1011.8 0.0
28/03:30am 22.0 26.4 21.3 96 0.5 CALM 0 0 0 0 1011.8 1011.7 0.0
28/03:00am 21.9 26.2 21.1 95 0.5 CALM 0 0 0 0 1012.0 1011.9 0.0
28/02:30am 22.3 26.8 21.6 96 0.5 CALM 0 0 0 0 1011.9 1011.8 0.0
28/02:00am 22.1 25.2 21.1 94 0.7 ESE 6 7 3 4 1012.1 1012.0 0.0
28/01:30am 22.6 27.2 21.8 95 0.5 CALM 0 0 0 0 1012.1 1012.0 0.0
28/01:00am 23.0 27.8 22.2 95 0.5 CALM 0 0 0 0 1012.1 1012.0 0.0
28/12:30am 23.3 28.3 22.5 95 0.5 CALM 0 0 0 0 1012.4 1012.3 0.0
28/12:00am 23.2 28.0 22.2 94 0.7 CALM 0 0 0 0 1012.5 1012.4 0.0
 
Date/Time
CST
Temp
°C
App
Temp
°C
Dew
Point
Rel
Hum
%
Delta-T
°C
Wind Press
QNH
hPa
Press
MSL
hPa
Rain
since 9 am
mm
Dir
 
Spd
km/h
Gust
km/h
Spd
kts
Gust
kts
27/11:30pm 23.5 28.5 22.5 94 0.7 CALM 0 0 0 0 1012.6 1012.5 0.0
27/11:00pm 23.6 28.5 22.4 93 0.8 CALM 0 0 0 0 1012.8 1012.7 0.0
27/10:30pm 23.9 29.0 22.7 93 0.8 CALM 0 0 0 0 1012.9 1012.8 0.0
27/10:00pm 24.0 28.9 22.4 91 1.1 CALM 0 0 0 0 1012.8 1012.7 0.0
27/09:30pm 24.8 28.6 22.7 88 1.4 ENE 7 11 4 6 1012.6 1012.5 0.0
27/09:00pm 24.8 28.9 23.2 91 1.1 ENE 7 9 4 5 1012.5 1012.4 0.0
27/08:30pm 24.8 28.9 23.0 90 1.2 ENE 6 9 3 5 1012.5 1012.4 0.0
27/08:00pm 24.9 30.2 23.1 90 1.2 CALM 0 0 0 0 1012.5 1012.4 0.0
27/07:30pm 25.3 30.8 23.4 89 1.3 CALM 0 0 0 0 1012.1 1012.0 0.0
27/07:00pm 25.5 31.0 23.4 88 1.4 CALM 0 0 0 0 1011.9 1011.8 0.0
27/06:30pm 25.9 30.1 23.2 85 1.8 E 6 7 3 4 1011.9 1011.8 0.0
27/06:00pm 26.2 29.8 23.1 83 2.1 E 9 13 5 7 1011.9 1011.8 0.0
27/05:30pm 26.5 30.2 23.2 82 2.2 E 9 11 5 6 1012.0 1011.9 0.0
27/05:00pm 26.0 30.0 23.1 84 2.0 E 7 11 4 6 1011.9 1011.8 0.0
27/04:30pm 25.7 29.4 22.6 83 2.1 ENE 7 9 4 5 1011.8 1011.7 0.0
27/04:00pm 25.7 26.7 22.2 81 2.3 ENE 20 24 11 13 1011.7 1011.6 0.0
27/03:30pm 28.7 31.2 22.4 68 4.3 SSE 13 22 7 12 1011.6 1011.5 0.0
27/03:00pm 30.1 33.8 24.5 72 3.9 WSW 13 20 7 11 1011.2 1011.1 0.0
27/02:30pm 30.2 33.1 23.9 69 4.4 W 15 20 8 11 1011.6 1011.5 0.0
27/02:00pm 30.4 33.8 24.1 69 4.4 W 13 22 7 12 1011.7 1011.6 0.0
27/01:30pm 30.4 34.3 23.6 67 4.7 WSW 9 15 5 8 1012.0 1011.9 0.0
27/01:00pm 30.3 34.3 24.4 70 4.1 WSW 11 15 6 8 1012.5 1012.4 0.0
27/12:30pm 29.9 33.8 24.3 72 3.9 WSW 11 17 6 9 1013.0 1012.9 0.0
27/12:00pm 29.8 33.8 24.4 73 3.8 W 11 17 6 9 1013.4 1013.3 0.0
27/11:30am 29.8 33.6 24.7 74 3.6 W 13 19 7 10 1013.8 1013.7 0.0
27/11:00am 30.3 34.6 24.2 70 4.2 W 9 15 5 8 1014.2 1014.1 0.0
27/10:30am 30.0 34.2 23.4 67 4.5 WSW 7 15 4 8 1014.5 1014.4 0.0
27/10:00am 29.3 34.4 23.3 70 4.1 SW 2 9 1 5 1014.8 1014.7 0.0
27/09:30am 28.8 33.0 23.2 71 3.8 N 6 11 3 6 1015.0 1014.9 0.0
27/09:00am 28.3 33.4 24.1 78 2.9 NE 4 7 2 4 1014.8 1014.7 0.2
27/08:30am 26.6 32.1 24.1 86 1.7 NNE 2 7 1 4 1014.4 1014.3 0.2
27/08:00am 23.9 29.1 22.9 94 0.7 CALM 0 4 0 2 1014.1 1014.0 0.2
27/07:30am 22.4 27.0 21.7 96 0.5 CALM 0 0 0 0 1013.8 1013.7 0.2
27/07:00am 22.1 26.5 21.4 96 0.5 CALM 0 0 0 0 1013.5 1013.4 0.2
27/06:30am 21.5 25.6 20.7 95 0.5 CALM 0 0 0 0 1013.0 1012.9 0.2
27/06:00am 21.5 25.6 20.7 95 0.5 CALM 0 0 0 0 1012.7 1012.6 0.2
27/05:30am 21.6 25.7 20.8 95 0.5 CALM 0 0 0 0 1012.5 1012.4 0.2
27/05:00am 22.2 26.7 21.5 96 0.5 CALM 0 0 0 0 1012.5 1012.4 0.2
27/04:30am 22.1 26.5 21.3 95 0.5 CALM 0 0 0 0 1012.3 1012.2 0.2
27/04:00am 22.2 26.7 21.5 96 0.5 CALM 0 0 0 0 1012.2 1012.1 0.2
27/03:30am 22.0 26.3 21.2 95 0.5 CALM 0 0 0 0 1012.2 1012.1 0.2
27/03:00am 22.0 25.0 21.2 95 0.5 E 7 9 4 5 1012.1 1012.0 0.2
27/02:30am 22.1 26.5 21.3 95 0.5 CALM 0 0 0 0 1012.3 1012.2 0.2
27/02:00am 22.2 26.5 21.2 94 0.7 CALM 0 0 0 0 1012.6 1012.5 0.2
27/01:30am 22.5 27.0 21.5 94 0.7 CALM 0 0 0 0 1012.8 1012.7 0.2
27/01:00am 22.6 27.1 21.6 94 0.7 CALM 0 0 0 0 1012.9 1012.8 0.2
27/12:30am 23.0 27.7 22.0 94 0.7 CALM 0 0 0 0 1013.0 1012.9 0.2
27/12:00am 22.9 27.6 21.9 94 0.7 CALM 0 0 0 0 1012.9 1012.8 0.2
 
Date/Time
CST
Temp
°C
App
Temp
°C
Dew
Point
Rel
Hum
%
Delta-T
°C
Wind Press
QNH
hPa
Press
MSL
hPa
Rain
since 9 am
mm
Dir
 
Spd
km/h
Gust
km/h
Spd
kts
Gust
kts
26/11:30pm 23.2 28.0 22.2 94 0.7 CALM 0 0 0 0 1013.0 1012.9 0.2
26/11:00pm 23.1 27.8 21.9 93 0.8 CALM 0 0 0 0 1013.0 1012.9 0.2
26/10:30pm 23.5 28.4 22.3 93 0.8 CALM 0 0 0 0 1013.1 1013.0 0.2
26/10:00pm 23.8 27.7 22.6 93 0.8 E 6 7 3 4 1013.2 1013.1 0.2
26/09:30pm 24.0 29.1 22.6 92 0.9 CALM 0 0 0 0 1013.2 1013.1 0.2
26/09:00pm 24.8 30.3 23.4 92 1.0 CALM 0 0 0 0 1013.0 1012.9 0.2
26/08:30pm 24.9 30.2 23.1 90 1.2 CALM 0 0 0 0 1013.0 1012.9 0.2
26/08:00pm 25.2 29.4 23.1 88 1.4 ENE 6 7 3 4 1012.8 1012.7 0.2
26/07:30pm 26.0 30.3 23.3 85 1.8 ENE 6 6 3 3 1012.5 1012.4 0.2
26/07:00pm 26.9 31.2 23.6 82 2.3 ENE 7 11 4 6 1012.1 1012.0 0.2
26/06:30pm 27.8 31.7 23.6 78 2.9 ENE 9 11 5 6 1011.8 1011.7 0.2
26/06:00pm 28.9 32.9 23.1 71 4.0 ESE 7 9 4 5 1011.5 1011.4 0.2
26/05:30pm 29.8 33.4 22.0 63 5.3 SE 6 9 3 5 1011.4 1011.3 0.2
26/05:00pm 30.4 33.3 21.8 60 5.8 SSE 9 15 5 8 1011.3 1011.2 0.2
26/04:30pm 30.8 33.6 21.6 58 6.2 SSE 9 13 5 7 1010.9 1010.8 0.2
26/04:00pm 30.6 33.8 21.7 59 6.0 S 7 13 4 7 1010.9 1010.8 0.2
26/03:30pm 30.7 33.1 21.5 58 6.2 SSE 11 17 6 9 1011.0 1010.9 0.2
26/03:00pm 30.7 33.6 21.8 59 6.0 S 9 17 5 9 1011.1 1011.0 0.2
26/02:30pm 30.9 33.8 22.5 61 5.7 SW 11 19 6 10 1011.3 1011.2 0.2
26/02:00pm 30.9 34.3 24.1 67 4.7 WSW 13 22 7 12 1011.6 1011.5 0.2
26/01:30pm 31.0 33.9 23.1 63 5.4 WSW 13 19 7 10 1012.0 1011.9 0.2
26/01:00pm 30.3 33.6 23.2 65 4.9 SW 11 17 6 9 1012.4 1012.3 0.2
26/12:30pm 30.9 34.8 23.0 62 5.4 WSW 7 15 4 8 1012.9 1012.8 0.2
26/12:00pm 31.6 34.6 22.0 56 6.5 SSE 9 15 5 8 1013.3 1013.2 0.2
26/11:30am 31.2 34.7 21.9 57 6.3 SSE 6 11 3 6 1013.7 1013.6 0.0
26/11:00am 29.9 32.6 20.7 57 6.1 SE 7 13 4 7 1014.1 1014.0 0.0
26/10:30am 29.6 32.9 21.5 61 5.4 SSW 6 11 3 6 1014.4 1014.3 0.0
26/10:00am 28.8 32.0 21.6 65 4.8 SSE 7 13 4 7 1014.6 1014.5 0.0
26/09:30am 28.4 33.0 23.1 73 3.6 E 4 7 2 4 1014.7 1014.6 0.0
26/09:00am 27.7 32.3 23.1 76 3.1 ESE 4 6 2 3 1014.7 1014.6 0.0
26/08:30am 25.7 30.1 23.4 87 1.6 ESE 6 9 3 5 1014.3 1014.2 0.0
26/08:00am 23.7 28.3 22.5 93 0.8 ENE 2 7 1 4 1014.1 1014.0 0.0
26/07:30am 22.1 26.5 21.4 96 0.5 CALM 0 0 0 0 1013.6 1013.5 0.0
26/07:00am 20.9 24.7 20.2 96 0.4 CALM 0 0 0 0 1013.3 1013.2 0.0
26/06:30am 20.7 24.4 20.0 96 0.4 CALM 0 0 0 0 1012.9 1012.8 0.0
26/06:00am 20.9 24.7 20.2 96 0.4 CALM 0 0 0 0 1012.7 1012.6 0.0
26/05:30am 21.0 24.9 20.3 96 0.5 CALM 0 0 0 0 1012.7 1012.6 0.0
26/05:00am 21.0 24.9 20.3 96 0.5 CALM 0 0 0 0 1012.4 1012.3 0.0
26/04:30am 21.2 25.2 20.5 96 0.5 CALM 0 0 0 0 1012.4 1012.3 0.0
26/04:00am 21.3 25.3 20.5 95 0.5 CALM 0 0 0 0 1012.2 1012.1 0.0
26/03:30am 21.5 25.6 20.7 95 0.5 CALM 0 0 0 0 1012.2 1012.1 0.0
26/03:00am 22.0 26.4 21.3 96 0.5 CALM 0 0 0 0 1012.2 1012.1 0.0
26/02:30am 21.9 26.2 21.1 95 0.5 CALM 0 0 0 0 1012.5 1012.4 0.0
26/02:00am 22.0 26.3 21.2 95 0.5 CALM 0 0 0 0 1012.6 1012.5 0.0
26/01:30am 22.1 26.5 21.3 95 0.5 CALM 0 0 0 0 1012.7 1012.6 0.0
26/01:00am 22.4 26.9 21.6 95 0.5 CALM 0 0 0 0 1012.9 1012.8 0.0
26/12:30am 22.6 27.2 21.8 95 0.5 CALM 0 0 0 0 1012.9 1012.8 0.0
26/12:00am 22.6 26.5 21.8 95 0.5 ESE 4 7 2 4 1013.0 1012.9 0.0
 
Date/Time
CST
Temp
°C
App
Temp
°C
Dew
Point
Rel
Hum
%
Delta-T
°C
Wind Press
QNH
hPa
Press
MSL
hPa
Rain
since 9 am
mm
Dir
 
Spd
km/h
Gust
km/h
Spd
kts
Gust
kts
25/11:30pm 22.7 26.1 21.7 94 0.7 ESE 6 7 3 4 1013.2 1013.1 0.0
25/11:00pm 22.8 26.4 22.0 95 0.5 ESE 6 7 3 4 1013.2 1013.1 0.0
25/10:30pm 22.9 27.6 21.9 94 0.7 CALM 0 0 0 0 1013.1 1013.0 0.0
25/10:00pm 23.1 27.8 21.9 93 0.8 CALM 0 0 0 0 1013.1 1013.0 0.0
25/09:30pm 23.6 28.5 22.4 93 0.8 CALM 0 0 0 0 1013.1 1013.0 0.0

Other Formats:

Comma delimited format used in spreadsheet applications
http://www.bom.gov.au/fwo/IDD60801/IDD60801.94153.axf

JavaScript Object Notation format (JSON) in row-major order
http://www.bom.gov.au/fwo/IDD60801/IDD60801.94153.json